Kewanee, IL

7:19 PM CDT on April 21, 2015 (GMT -0500)
Rockwell St. | | Change Station
CLOSE
Current Station
Personal Weather Station
Location: Kewanee, IL
Elevation: 858 ft
Nearby Weather Stations

Elev 858 ft 41.24 °N, 89.93 °W | Updated 8 minutes ago

Partly Cloudy
Partly Cloudy
50.2 °F
Feels Like 50.2 °F
N
7.4
Wind Variable Wind from NNW

Today
High -- | Low -- °F
--% Chance of Precip.
Yesterday
High -- | Low -- °F
Precip. -- in
6:11 AM 7:46 PM
Waxing Crescent, 13% visible
Pressure 29.73 in
Visibility 10.0 miles
Clouds Scattered Clouds 7000 ft
Overcast 8000 ft
Dew Point 31 °F
Humidity 47%
Rainfall 0.01 in
Snow Depth Not available.
UV 0 out of 12
Pollen 11.30 out of 12
Air Quality Not available.
Flu Activity Regional
METAR KGBG 212355Z AUTO 30015G22KT 10SM SCT070 OVC080 11/M01 A2973 RMK AO2 T01101006 10147 20110

More Conditions Fewer Conditions

Pressure 29.73 in
Visibility 10.0 miles
Clouds Scattered Clouds 7000 ft
Overcast 8000 ft
Dew Point 31 °F
Humidity 47%
Rainfall 0.01 in
Snow Depth Not available.
UV 0 out of 12
Pollen 11.30 out of 12
Air Quality Not available.
Flu Activity Regional
METAR KGBG 212355Z AUTO 30015G22KT 10SM SCT070 OVC080 11/M01 A2973 RMK AO2 T01101006 10147 20110

More Conditions Fewer Conditions

10-Day Weather Forecast

Almanac

Astronomy

Apr. 21, 2015 Rise Set
Actual Time
Civil Twilight
Nautical Twilight
Astronomical Twilight
Moon
Length of Visible Light
Length of Day
Tomorrow will be .
, % of the Moon is Illuminated

Today's Extremes

State Highs State Lows

Community

WunderPhotos

Upload Photos

1,815,586 photos uploaded!

WunderBlogs® & News

Nearby

Air Quality

  Air Quality AQ Index Pollutant
Not available.

Snow Depth

Station Depth Elevation

Earthquake Activity

City Distance Mag. Time & Date
Minimum magnitude displayed is 2.5.

Coastal Water Temperatures

Place Temperature

Stations

Nearby Weather Stations

Station Location Temp. Windchill Dew Point Humidity Wind Precip. Elev Updated Type